Live ATC SBMG!



Copyright © 2009-2014 todos os direitos reservados
Proibida a reprodução total ou parcial.
NOTICE Unauthorized linking and use of audio feeds is prohibited. See LiveATC.net Terms of Service 

sexta-feira, 22 de junho de 2012

TUDO CAVOK NO SBMG!!!

BEM AMIGOS, VOCÊS QUE ACOMPANHARAM ESSA SEMANA COMPLICADA NOS AEROPORTOS DO PARANÁ, HOJE UMA ÓTIMA NOTICIA!
TUDO OK NOS AEROPORTOS DA REGIÃO, DE MANHÃ CURITIBA OSCILOU MAS SE MANTEVE ABERTO, O PRÓPRIO SBMG NOS PREGOU UMA PEÇA, LOGO APOS A DECOLAGEM DOS PERNOITES UM NEVOEIRO COM CHUVA ATINGIU O AERÓDROMO BEM NA HORA DO POUSO DO VOO 5314 DA TRIP.
ESTE TEVE QUE ARREMETER POUSANDO UNS 20 MINUTOS DEPOIS, QUANDO  "MILAGROSAMENTE" O TEMPO LIMPOU E O SOL VOLTOU A APARECER! 
MESMO COM O SOL A TEMPERATURA FOI BAIXA, AGORA A NOITE FAZ 11 GRAUS EM MARINGÁ.
NOSSO ULTIMO METAR TAMBEM REGISTRA O MESMO :

METAR SBMG 230200Z 17003KT CAVOK 12/10 Q1021=
SPECI SBMG 230240Z 18004KT CAVOK 11/10 Q1021=

4 comentários:

  1. Tava na hora desse Metar acusar um "Cavok" rsrs Abraço!

    ResponderExcluir
  2. opa!! fiquei contente tambem com esse ultimo metar!!!
    abraços!

    ResponderExcluir
  3. Boa Tarde!
    Estou interessado em começar uma parceria com seu blog. Já acompanho seu blog há muito tempo, e gostaria de firmar uma parceria.
    Abraços!
    Jaasiel Abner

    ResponderExcluir
  4. parceria aceita!!!
    muito obrigado pelo convite!

    ResponderExcluir